Time;durP1;ratioP1;P1;durP2;ratioP2;P2;SDS_P1;SDS_P2;PMS_P1;PMS_P2;Temp;Humidity;BMP_temperature;BMP_pressure;BME280_temperature;BME280_humidity;BME280_pressure;Samples;Min_cycle;Max_cycle;Signal;HPM_P1;HPM_P2
2021/07/10 00:02:19;;;;;;;4.85;2.88;;;15.60;99.90;;;;;;4956463;28;20205;-71
2021/07/10 00:04:46;;;;;;;3.70;2.85;;;15.60;99.90;;;;;;4957213;28;20301;-74
2021/07/10 00:07:12;;;;;;;7.90;4.38;;;15.60;99.90;;;;;;4956736;28;20672;-72
2021/07/10 00:09:37;;;;;;;6.57;3.83;;;15.50;99.90;;;;;;4962758;28;20212;-71
2021/07/10 00:12:03;;;;;;;4.60;3.40;;;15.40;99.90;;;;;;4961903;28;20201;-73
2021/07/10 00:14:29;;;;;;;6.45;2.72;;;15.40;99.90;;;;;;4956072;28;20656;-71
2021/07/10 00:16:55;;;;;;;3.85;3.28;;;15.40;99.90;;;;;;4955794;28;20256;-74
2021/07/10 00:19:22;;;;;;;4.95;3.05;;;15.40;99.90;;;;;;4957740;28;20279;-72
2021/07/10 00:21:47;;;;;;;3.70;3.00;;;15.40;99.90;;;;;;4959254;28;20772;-70
2021/07/10 00:24:14;;;;;;;5.72;3.08;;;15.30;99.90;;;;;;4962484;28;20215;-70
2021/07/10 00:26:39;;;;;;;4.20;3.08;;;15.30;99.90;;;;;;4953831;28;20506;-71
2021/07/10 00:29:05;;;;;;;6.22;3.28;;;15.20;99.90;;;;;;4957347;28;20292;-71
2021/07/10 00:31:31;;;;;;;3.25;2.60;;;15.20;99.90;;;;;;4957259;28;20202;-70
2021/07/10 00:33:56;;;;;;;3.83;3.03;;;15.20;99.90;;;;;;4960547;28;20192;-69
2021/07/10 00:36:22;;;;;;;5.68;3.05;;;15.30;99.90;;;;;;4958516;28;20731;-69
2021/07/10 00:38:48;;;;;;;5.65;3.58;;;15.20;99.90;;;;;;4958014;28;20182;-70
2021/07/10 00:41:13;;;;;;;4.75;3.40;;;15.20;99.90;;;;;;4957937;28;20268;-69
2021/07/10 00:43:39;;;;;;;11.70;3.67;;;15.30;99.90;;;;;;4955791;28;20193;-69
2021/07/10 00:46:06;;;;;;;6.22;3.60;;;15.30;99.90;;;;;;4955806;28;20260;-70
2021/07/10 00:48:32;;;;;;;4.93;3.38;;;15.40;99.90;;;;;;4957714;28;20189;-69
2021/07/10 00:50:58;;;;;;;4.90;3.35;;;15.40;99.90;;;;;;4957201;28;20556;-70
2021/07/10 00:53:23;;;;;;;4.60;3.50;;;15.50;99.90;;;;;;4956129;28;20659;-70
2021/07/10 00:55:49;;;;;;;4.90;3.80;;;15.60;99.90;;;;;;4952347;28;20579;-70
2021/07/10 00:58:15;;;;;;;4.45;3.55;;;15.50;99.90;;;;;;4955097;28;20275;-70
2021/07/10 01:00:41;;;;;;;8.57;3.70;;;15.60;99.90;;;;;;4958108;28;20299;-70
2021/07/10 01:03:07;;;;;;;5.50;3.63;;;15.70;99.90;;;;;;4954366;28;20186;-72
2021/07/10 01:05:35;;;;;;;3.50;3.00;;;15.60;99.90;;;;;;4952187;28;20554;-69
2021/07/10 01:08:00;;;;;;;4.82;3.50;;;15.70;99.90;;;;;;4953519;28;20640;-71
2021/07/10 01:10:26;;;;;;;4.28;3.55;;;15.60;99.90;;;;;;4956529;28;20299;-70
2021/07/10 01:12:54;;;;;;;5.88;3.85;;;15.60;99.90;;;;;;4956857;28;20193;-70
2021/07/10 01:15:23;;;;;;;4.70;3.80;;;15.50;99.90;;;;;;4956216;28;20251;-71
2021/07/10 01:17:49;;;;;;;4.78;3.60;;;15.60;99.90;;;;;;4956274;28;20219;-69
2021/07/10 01:20:20;;;;;;;4.60;3.55;;;15.50;99.90;;;;;;4959102;28;20613;-70
2021/07/10 01:22:47;;;;;;;4.18;3.22;;;15.40;99.90;;;;;;4955196;28;20177;-70
2021/07/10 01:25:21;;;;;;;6.18;3.60;;;15.40;99.90;;;;;;4959830;28;20204;-69
2021/07/10 01:27:48;;;;;;;5.63;3.33;;;15.30;99.90;;;;;;4954383;28;20189;-73
2021/07/10 01:30:16;;;;;;;5.13;3.55;;;15.20;99.90;;;;;;4955683;28;20308;-70
2021/07/10 01:32:44;;;;;;;4.45;3.40;;;15.10;99.90;;;;;;4952347;28;20457;-70
2021/07/10 01:35:10;;;;;;;5.20;3.25;;;15.10;99.90;;;;;;4953740;28;20577;-70
2021/07/10 01:37:43;;;;;;;4.20;3.20;;;15.00;99.90;;;;;;4952707;28;20228;-71
2021/07/10 01:40:12;;;;;;;5.05;3.80;;;15.00;99.90;;;;;;4956084;28;20240;-70
2021/07/10 01:42:37;;;;;;;4.85;3.60;;;14.90;99.90;;;;;;4955125;28;20174;-70
2021/07/10 01:45:03;;;;;;;4.95;3.85;;;14.90;99.90;;;;;;4954616;28;20188;-70
2021/07/10 01:47:29;;;;;;;6.07;3.15;;;14.90;99.90;;;;;;4953606;28;20192;-71
2021/07/10 01:49:54;;;;;;;5.60;3.95;;;14.90;99.90;;;;;;4959521;28;20208;-71
2021/07/10 01:52:20;;;;;;;4.70;3.85;;;14.90;99.90;;;;;;4961248;28;20217;-69
2021/07/10 01:54:46;;;;;;;4.72;3.50;;;14.80;99.90;;;;;;4955302;28;20301;-71
2021/07/10 01:57:11;;;;;;;4.65;3.65;;;14.80;99.90;;;;;;4959000;28;20207;-70
2021/07/10 01:59:38;;;;;;;4.45;3.67;;;14.70;99.90;;;;;;4953806;28;20280;-69
2021/07/10 02:02:04;;;;;;;8.57;4.85;;;14.80;99.90;;;;;;4953734;28;20193;-72
2021/07/10 02:04:31;;;;;;;7.05;3.95;;;14.90;99.90;;;;;;4951276;28;20193;-70
2021/07/10 02:06:58;;;;;;;4.65;3.67;;;15.00;99.90;;;;;;4950682;28;20202;-69
2021/07/10 02:09:24;;;;;;;5.38;4.20;;;15.00;99.90;;;;;;4958851;28;20311;-73
2021/07/10 02:11:50;;;;;;;6.25;4.03;;;15.10;99.90;;;;;;4961547;28;20272;-69
2021/07/10 02:14:18;;;;;;;5.38;3.65;;;15.10;99.90;;;;;;4955960;28;20197;-70
2021/07/10 02:16:45;;;;;;;5.15;3.63;;;15.20;99.90;;;;;;4954693;28;20227;-72
2021/07/10 02:19:11;;;;;;;6.60;4.15;;;15.20;99.90;;;;;;4954371;28;20205;-69
2021/07/10 02:21:37;;;;;;;11.60;4.43;;;15.20;99.90;;;;;;4953530;28;20232;-69
2021/07/10 02:24:07;;;;;;;5.65;3.65;;;15.10;99.90;;;;;;4952720;28;20199;-73
2021/07/10 02:26:34;;;;;;;5.63;3.78;;;15.10;99.90;;;;;;4957204;28;20271;-69
2021/07/10 02:29:00;;;;;;;9.77;4.97;;;15.10;99.90;;;;;;4951705;28;20213;-71
2021/07/10 02:31:26;;;;;;;5.20;4.10;;;15.20;99.90;;;;;;4955764;28;20184;-71
2021/07/10 02:33:52;;;;;;;9.27;3.85;;;15.20;99.90;;;;;;4959366;28;20185;-68
2021/07/10 02:36:18;;;;;;;7.28;3.72;;;15.10;99.90;;;;;;4956408;28;20958;-68
2021/07/10 02:38:44;;;;;;;7.20;4.35;;;15.10;99.90;;;;;;4956507;28;20243;-71
2021/07/10 02:41:09;;;;;;;6.18;4.43;;;15.00;99.90;;;;;;4959078;28;20192;-70
2021/07/10 02:43:35;;;;;;;5.30;4.28;;;15.00;99.90;;;;;;4950539;28;20264;-70
2021/07/10 02:46:01;;;;;;;6.22;4.50;;;15.00;99.90;;;;;;4954789;28;20192;-70
2021/07/10 02:48:26;;;;;;;6.20;4.65;;;15.10;99.90;;;;;;4951528;28;20201;-70
2021/07/10 02:50:52;;;;;;;6.57;3.85;;;15.10;99.90;;;;;;4952403;28;20209;-71
2021/07/10 02:53:17;;;;;;;6.00;4.47;;;15.10;99.90;;;;;;4955429;28;20204;-69
2021/07/10 02:55:43;;;;;;;7.45;4.25;;;15.20;99.90;;;;;;4956240;28;20224;-71
2021/07/10 02:58:09;;;;;;;5.60;4.47;;;15.10;99.90;;;;;;4954838;28;20212;-70
2021/07/10 03:00:34;;;;;;;7.00;4.55;;;15.10;99.90;;;;;;4955543;28;20288;-70
2021/07/10 03:03:00;;;;;;;8.25;5.38;;;15.10;99.90;;;;;;4958234;28;20188;-70
2021/07/10 03:05:33;;;;;;;7.22;4.30;;;15.20;99.90;;;;;;4957092;28;20189;-72
2021/07/10 03:07:59;;;;;;;9.77;4.22;;;15.20;99.90;;;;;;4951551;28;20497;-71
2021/07/10 03:10:27;;;;;;;6.57;5.00;;;15.20;99.90;;;;;;4954021;28;20221;-70
2021/07/10 03:12:53;;;;;;;6.22;4.78;;;15.20;99.90;;;;;;4954079;28;20180;-70
2021/07/10 03:15:19;;;;;;;7.22;4.82;;;15.20;99.90;;;;;;4959819;28;20239;-71
2021/07/10 03:17:46;;;;;;;9.95;5.60;;;15.20;99.90;;;;;;4961985;28;20213;-70
2021/07/10 03:20:13;;;;;;;7.50;5.03;;;15.30;99.90;;;;;;4957441;28;20602;-70
2021/07/10 03:22:39;;;;;;;8.82;5.78;;;15.30;99.90;;;;;;4959586;28;20498;-71
2021/07/10 03:25:07;;;;;;;8.27;5.32;;;15.30;99.90;;;;;;4954878;28;20204;-70
2021/07/10 03:27:33;;;;;;;9.15;4.78;;;15.40;99.90;;;;;;4961242;28;20251;-69
2021/07/10 03:29:59;;;;;;;7.78;5.30;;;15.40;99.90;;;;;;4957412;28;20196;-71
2021/07/10 03:32:25;;;;;;;10.90;5.32;;;15.40;99.90;;;;;;4959137;28;20681;-70
2021/07/10 03:34:50;;;;;;;7.60;4.90;;;15.50;99.90;;;;;;4956014;28;20217;-70
2021/07/10 03:37:16;;;;;;;9.38;5.25;;;15.50;99.90;;;;;;4957403;28;20641;-71
2021/07/10 03:39:42;;;;;;;8.73;5.57;;;15.50;99.90;;;;;;4958856;28;20656;-71
2021/07/10 03:42:07;;;;;;;8.82;5.15;;;15.50;99.90;;;;;;4961920;28;20277;-69
2021/07/10 03:44:33;;;;;;;7.88;5.35;;;15.70;99.90;;;;;;4955488;28;20272;-71
2021/07/10 03:46:59;;;;;;;9.13;6.22;;;15.70;99.90;;;;;;4957229;28;20536;-71
2021/07/10 03:49:24;;;;;;;8.15;5.53;;;15.70;99.90;;;;;;4962204;28;20202;-70
2021/07/10 03:51:50;;;;;;;8.35;5.90;;;15.70;99.90;;;;;;4959766;28;20184;-69
2021/07/10 03:54:15;;;;;;;9.63;6.60;;;15.70;99.90;;;;;;4957766;28;20186;-69
2021/07/10 03:56:41;;;;;;;12.77;6.15;;;15.70;99.90;;;;;;4958593;28;20205;-70
2021/07/10 03:59:06;;;;;;;9.02;6.10;;;15.70;99.90;;;;;;4960141;28;20560;-70
2021/07/10 04:01:35;;;;;;;10.38;6.78;;;15.80;99.90;;;;;;4951678;28;20181;-71
2021/07/10 04:04:01;;;;;;;9.57;5.80;;;15.80;99.90;;;;;;4956282;28;20578;-70
2021/07/10 04:06:28;;;;;;;9.70;6.63;;;15.80;99.90;;;;;;4956491;28;20662;-70
2021/07/10 04:08:53;;;;;;;7.90;4.93;;;15.90;99.90;;;;;;4956540;28;20201;-69
2021/07/10 04:11:19;;;;;;;8.68;5.78;;;15.90;99.90;;;;;;4955281;28;20196;-70
2021/07/10 04:13:45;;;;;;;9.57;5.88;;;15.90;99.90;;;;;;4959056;28;20188;-71
2021/07/10 04:16:11;;;;;;;8.45;5.68;;;16.00;99.90;;;;;;4955615;28;20213;-70
2021/07/10 04:18:37;;;;;;;11.85;6.55;;;16.10;99.90;;;;;;4950835;28;20200;-70
2021/07/10 04:21:03;;;;;;;8.50;5.97;;;16.00;99.90;;;;;;4956125;28;20213;-69
2021/07/10 04:23:29;;;;;;;8.23;5.88;;;16.10;99.90;;;;;;4954229;28;20181;-69
2021/07/10 04:25:55;;;;;;;8.50;6.50;;;16.10;99.90;;;;;;4959803;28;20185;-70
2021/07/10 04:28:21;;;;;;;10.40;6.35;;;16.10;99.90;;;;;;4957419;28;20534;-70
2021/07/10 04:30:46;;;;;;;8.52;6.07;;;16.20;99.90;;;;;;4955996;28;20215;-69
2021/07/10 04:33:12;;;;;;;8.57;5.07;;;16.30;99.90;;;;;;4957105;28;20693;-71
2021/07/10 04:35:37;;;;;;;8.40;5.95;;;16.30;99.90;;;;;;4957885;28;20227;-73
2021/07/10 04:38:03;;;;;;;8.45;5.55;;;16.30;99.90;;;;;;4956374;28;20295;-69
2021/07/10 04:40:29;;;;;;;8.45;6.13;;;16.30;99.90;;;;;;4957171;28;20353;-70
2021/07/10 04:42:55;;;;;;;10.10;6.25;;;16.30;99.90;;;;;;4953644;28;20208;-70
2021/07/10 04:45:21;;;;;;;10.20;6.90;;;16.30;99.90;;;;;;4954170;28;20206;-69
2021/07/10 04:47:47;;;;;;;11.52;6.00;;;16.20;99.90;;;;;;4953225;28;20310;-69
2021/07/10 04:50:14;;;;;;;7.15;5.53;;;16.20;99.90;;;;;;4954981;28;20221;-69
2021/07/10 04:52:42;;;;;;;8.10;5.63;;;16.20;99.90;;;;;;4955843;28;20197;-71
2021/07/10 04:55:14;;;;;;;7.35;6.10;;;16.30;99.90;;;;;;4955957;28;20588;-69
2021/07/10 04:57:41;;;;;;;8.45;5.78;;;16.30;99.90;;;;;;4952021;28;20178;-70
2021/07/10 05:00:07;;;;;;;9.02;5.50;;;16.50;99.90;;;;;;4956503;28;20739;-68
2021/07/10 05:02:33;;;;;;;9.90;5.40;;;16.50;99.90;;;;;;4955427;28;20181;-69
2021/07/10 05:04:59;;;;;;;7.43;5.32;;;16.40;99.90;;;;;;4957200;28;20188;-70
2021/07/10 05:07:24;;;;;;;8.48;5.82;;;16.40;99.90;;;;;;4954166;28;20205;-69
2021/07/10 05:09:51;;;;;;;7.90;4.50;;;16.50;99.90;;;;;;4958587;28;20576;-70
2021/07/10 05:12:20;;;;;;;7.72;4.97;;;16.60;99.90;;;;;;4959453;28;20181;-69
2021/07/10 05:14:46;;;;;;;6.28;4.13;;;16.70;99.90;;;;;;4954759;28;20272;-69
2021/07/10 05:17:12;;;;;;;6.22;4.55;;;16.80;99.90;;;;;;4956110;28;20185;-69
2021/07/10 05:19:38;;;;;;;7.82;4.68;;;16.80;99.90;;;;;;4954316;28;20211;-69
2021/07/10 05:22:04;;;;;;;7.00;4.68;;;16.90;99.90;;;;;;4957900;28;20199;-71
2021/07/10 05:24:29;;;;;;;5.70;4.20;;;17.00;99.90;;;;;;4955271;28;20199;-69
2021/07/10 05:26:55;;;;;;;6.25;4.82;;;17.00;99.90;;;;;;4959428;28;20185;-69
2021/07/10 05:29:21;;;;;;;8.32;4.85;;;17.10;99.90;;;;;;4959318;28;20201;-69
2021/07/10 05:31:46;;;;;;;6.07;4.63;;;17.10;99.90;;;;;;4957768;28;20217;-70
2021/07/10 05:34:12;;;;;;;6.78;4.82;;;17.20;99.90;;;;;;4956542;28;20193;-69
2021/07/10 05:36:38;;;;;;;6.60;4.35;;;17.20;99.90;;;;;;4957341;28;20395;-70
2021/07/10 05:39:04;;;;;;;7.90;4.38;;;17.20;99.90;;;;;;4954153;28;20295;-71
2021/07/10 05:41:30;;;;;;;6.38;4.78;;;17.20;99.90;;;;;;4952362;28;20188;-71
2021/07/10 05:43:56;;;;;;;5.93;4.72;;;17.30;99.90;;;;;;4950953;28;20560;-69
2021/07/10 05:46:21;;;;;;;7.97;3.90;;;17.30;99.90;;;;;;4948833;28;20197;-70
2021/07/10 05:48:47;;;;;;;8.45;4.70;;;17.20;99.90;;;;;;4955014;28;20387;-69
2021/07/10 05:51:12;;;;;;;5.93;4.55;;;17.30;99.90;;;;;;4957160;28;20192;-70
2021/07/10 05:53:38;;;;;;;5.35;4.38;;;17.30;99.90;;;;;;4952750;28;20190;-70
2021/07/10 05:56:04;;;;;;;6.13;4.15;;;17.40;99.90;;;;;;4946291;28;20212;-71
2021/07/10 05:58:29;;;;;;;5.38;4.00;;;17.40;99.90;;;;;;4943724;28;20216;-70
2021/07/10 06:00:55;;;;;;;6.15;4.05;;;17.60;99.90;;;;;;4943689;28;20323;-69
2021/07/10 06:03:21;;;;;;;7.00;4.82;;;17.60;99.90;;;;;;4946108;28;20198;-71
2021/07/10 06:05:46;;;;;;;6.90;5.13;;;17.70;99.90;;;;;;4945320;28;20229;-69
2021/07/10 06:08:12;;;;;;;6.13;4.20;;;17.70;99.90;;;;;;4951877;28;20216;-68
2021/07/10 06:10:37;;;;;;;6.15;4.35;;;17.70;99.90;;;;;;4951851;28;20288;-69
2021/07/10 06:13:03;;;;;;;5.90;4.30;;;17.60;99.90;;;;;;4952787;28;20660;-69
2021/07/10 06:15:28;;;;;;;5.78;3.92;;;17.70;99.90;;;;;;4947172;28;20259;-69
2021/07/10 06:17:54;;;;;;;7.70;4.53;;;17.80;99.90;;;;;;4955544;28;20188;-69
2021/07/10 06:20:22;;;;;;;4.80;3.50;;;18.20;99.90;;;;;;4947217;28;20565;-69
2021/07/10 06:22:49;;;;;;;6.45;4.32;;;18.40;99.90;;;;;;4947900;28;20193;-69
2021/07/10 06:25:15;;;;;;;7.13;3.85;;;18.70;99.90;;;;;;4957086;28;20189;-70
2021/07/10 06:27:43;;;;;;;5.38;3.95;;;19.00;99.90;;;;;;4951015;28;20185;-69
2021/07/10 06:30:11;;;;;;;5.75;4.00;;;19.10;99.90;;;;;;4953303;28;20684;-70
2021/07/10 06:32:38;;;;;;;5.75;4.25;;;19.00;99.90;;;;;;4947602;28;20547;-69
2021/07/10 06:35:05;;;;;;;5.78;4.05;;;19.00;99.90;;;;;;4952769;28;20205;-69
2021/07/10 06:37:31;;;;;;;4.53;3.75;;;19.20;99.90;;;;;;4948687;28;20181;-69
2021/07/10 06:39:56;;;;;;;7.72;4.45;;;19.50;99.90;;;;;;4950996;28;20548;-69
2021/07/10 06:42:22;;;;;;;4.75;3.80;;;19.50;99.90;;;;;;4952062;28;20197;-70
2021/07/10 06:44:48;;;;;;;7.28;3.92;;;19.60;99.90;;;;;;4955451;28;20184;-69
2021/07/10 06:47:14;;;;;;;6.07;4.35;;;19.70;99.90;;;;;;4961171;28;20192;-70
2021/07/10 06:49:40;;;;;;;5.93;4.15;;;20.00;99.90;;;;;;4950289;28;20603;-69
2021/07/10 06:52:07;;;;;;;6.30;4.25;;;20.40;99.90;;;;;;4953131;28;20189;-70
2021/07/10 06:54:33;;;;;;;4.35;3.22;;;20.60;99.90;;;;;;4955691;28;20197;-69
2021/07/10 06:56:58;;;;;;;4.47;3.72;;;20.70;99.90;;;;;;4958315;28;20185;-69
2021/07/10 06:59:24;;;;;;;5.80;3.63;;;20.50;99.90;;;;;;4951980;28;20617;-69
2021/07/10 07:01:50;;;;;;;4.40;2.78;;;20.30;99.90;;;;;;4958066;28;20224;-69
2021/07/10 07:04:19;;;;;;;4.40;3.50;;;20.10;99.90;;;;;;4955491;28;20566;-70
2021/07/10 07:06:46;;;;;;;8.25;3.95;;;20.20;99.90;;;;;;4955165;28;20196;-69
2021/07/10 07:09:11;;;;;;;4.43;2.95;;;20.30;99.90;;;;;;4956057;28;20799;-69
2021/07/10 07:11:38;;;;;;;4.43;3.05;;;20.50;99.90;;;;;;4952410;28;20189;-70
2021/07/10 07:14:03;;;;;;;4.35;3.58;;;20.60;99.90;;;;;;4955451;28;20559;-69
2021/07/10 07:16:29;;;;;;;4.25;3.30;;;20.70;99.90;;;;;;4955323;28;20212;-69
2021/07/10 07:18:55;;;;;;;3.72;2.95;;;20.70;99.90;;;;;;4956006;28;20259;-72
2021/07/10 07:21:20;;;;;;;3.63;2.78;;;20.80;99.90;;;;;;4955608;28;20534;-70
2021/07/10 07:23:46;;;;;;;4.25;2.88;;;20.70;99.90;;;;;;4958502;28;20248;-70
2021/07/10 07:26:12;;;;;;;3.20;2.63;;;20.80;99.90;;;;;;4957038;28;20246;-70
2021/07/10 07:28:38;;;;;;;2.95;2.65;;;20.70;99.90;;;;;;4955059;28;20524;-70
2021/07/10 07:31:04;;;;;;;3.53;3.05;;;20.90;99.90;;;;;;4951970;28;20239;-69
2021/07/10 07:33:30;;;;;;;3.85;2.80;;;20.90;99.90;;;;;;4955672;28;20184;-71
2021/07/10 07:35:57;;;;;;;4.60;3.10;;;21.00;99.90;;;;;;4962338;28;20213;-69
2021/07/10 07:38:22;;;;;;;4.05;3.63;;;21.00;99.90;;;;;;4957364;28;20190;-69
2021/07/10 07:40:49;;;;;;;4.00;3.20;;;21.30;99.90;;;;;;4953123;28;20279;-73
2021/07/10 07:43:14;;;;;;;3.40;2.95;;;21.50;99.90;;;;;;4954327;28;20189;-70
2021/07/10 07:45:40;;;;;;;5.38;3.55;;;21.60;99.90;;;;;;4950557;28;20189;-70
2021/07/10 07:48:06;;;;;;;3.55;2.85;;;21.50;99.90;;;;;;4956776;28;20700;-69
2021/07/10 07:50:31;;;;;;;3.03;2.72;;;21.50;99.90;;;;;;4957403;28;20200;-71
2021/07/10 07:52:57;;;;;;;8.80;3.08;;;21.50;99.90;;;;;;4958483;28;20558;-71
2021/07/10 07:55:23;;;;;;;3.53;2.92;;;21.50;99.90;;;;;;4956661;28;20726;-70
2021/07/10 07:57:49;;;;;;;3.92;3.13;;;21.50;99.90;;;;;;4959453;28;20185;-73
2021/07/10 08:00:19;;;;;;;3.38;2.65;;;21.50;99.90;;;;;;4956752;28;20213;-71
2021/07/10 08:02:46;;;;;;;3.00;2.47;;;21.60;99.90;;;;;;4960777;28;20228;-70
2021/07/10 08:05:12;;;;;;;3.13;2.72;;;21.70;99.90;;;;;;4958922;28;20465;-70
2021/07/10 08:07:38;;;;;;;3.47;2.88;;;21.70;99.90;;;;;;4957504;28;20654;-71
2021/07/10 08:10:09;;;;;;;2.97;2.40;;;21.60;99.90;;;;;;4955414;28;20293;-70
2021/07/10 08:12:35;;;;;;;3.97;2.83;;;21.50;99.90;;;;;;4950782;28;20185;-71
2021/07/10 08:15:01;;;;;;;2.40;2.20;;;21.60;99.90;;;;;;4959977;28;20485;-70
2021/07/10 08:17:28;;;;;;;4.05;2.80;;;21.70;99.90;;;;;;4957713;28;20185;-71
2021/07/10 08:19:54;;;;;;;3.08;2.78;;;21.70;99.90;;;;;;4957888;28;20263;-69
2021/07/10 08:22:20;;;;;;;2.53;2.28;;;21.80;99.90;;;;;;4958083;28;20706;-71
2021/07/10 08:24:46;;;;;;;2.65;2.45;;;21.90;99.90;;;;;;4953495;28;20182;-73
2021/07/10 08:27:11;;;;;;;4.28;2.90;;;22.20;99.90;;;;;;4956439;28;20190;-71
2021/07/10 08:29:37;;;;;;;4.13;2.40;;;22.20;99.90;;;;;;4955416;28;20197;-70
2021/07/10 08:32:03;;;;;;;3.13;2.75;;;22.30;99.90;;;;;;4957869;28;20330;-71
2021/07/10 08:34:29;;;;;;;3.30;2.67;;;22.40;99.90;;;;;;4957647;28;20185;-70
2021/07/10 08:36:54;;;;;;;4.40;2.75;;;22.50;99.90;;;;;;4955767;28;20331;-71
2021/07/10 08:39:20;;;;;;;3.50;2.85;;;22.80;99.90;;;;;;4954997;28;20664;-70
2021/07/10 08:41:49;;;;;;;4.30;3.15;;;23.10;99.90;;;;;;4954197;28;20181;-71
2021/07/10 08:44:15;;;;;;;3.60;2.83;;;23.20;99.90;;;;;;4953575;28;20838;-74
2021/07/10 08:46:41;;;;;;;3.70;3.35;;;23.10;99.90;;;;;;4956515;28;20194;-71
2021/07/10 08:49:07;;;;;;;3.92;3.42;;;22.80;99.90;;;;;;4958774;28;20212;-71
2021/07/10 08:51:35;;;;;;;4.57;3.78;;;22.60;99.90;;;;;;4952941;28;20649;-71
2021/07/10 08:54:01;;;;;;;3.80;3.30;;;22.60;99.90;;;;;;4958356;28;20606;-71
2021/07/10 08:56:27;;;;;;;4.13;3.72;;;22.70;99.90;;;;;;4957552;28;20219;-72
2021/07/10 08:58:52;;;;;;;5.88;4.75;;;22.70;99.90;;;;;;4957463;28;20177;-72
2021/07/10 09:01:18;;;;;;;5.47;4.03;;;22.40;99.90;;;;;;4954415;28;20188;-71
2021/07/10 09:03:44;;;;;;;4.28;3.88;;;22.10;99.90;;;;;;4950075;28;20272;-70
2021/07/10 09:06:09;;;;;;;5.63;4.50;;;22.10;99.90;;;;;;4949577;28;20269;-72
2021/07/10 09:08:35;;;;;;;7.57;4.07;;;22.00;99.90;;;;;;4955250;28;20645;-71
2021/07/10 09:11:05;;;;;;;6.90;4.45;;;22.20;99.90;;;;;;4955891;28;20618;-71
2021/07/10 09:13:40;;;;;;;5.45;4.57;;;22.00;99.90;;;;;;4955876;28;20189;-70
2021/07/10 09:16:11;;;;;;;4.45;3.65;;;22.20;99.90;;;;;;4950814;28;20232;-71
2021/07/10 09:18:39;;;;;;;5.20;4.30;;;22.80;99.90;;;;;;4958982;28;20185;-71
2021/07/10 09:21:05;;;;;;;6.28;4.47;;;23.20;99.90;;;;;;4954109;28;20196;-70
2021/07/10 09:23:38;;;;;;;7.72;5.35;;;23.50;99.90;;;;;;4956614;28;20192;-71
2021/07/10 09:26:26;;;;;;;5.60;4.00;;;23.40;99.90;;;;;;4954779;28;20200;-70
2021/07/10 09:29:07;;;;;;;5.35;4.45;;;23.20;99.90;;;;;;4957510;28;20181;-70
2021/07/10 09:31:41;;;;;;;5.75;4.55;;;23.00;99.90;;;;;;4955808;28;20196;-72
2021/07/10 09:34:13;;;;;;;4.97;4.22;;;23.10;99.90;;;;;;4954906;28;20200;-70
2021/07/10 09:36:59;;;;;;;5.28;4.57;;;23.40;99.90;;;;;;4950475;28;20211;-71
2021/07/10 09:39:39;;;;;;;6.38;4.50;;;23.20;99.90;;;;;;4950469;28;20711;-71
2021/07/10 09:42:06;;;;;;;6.15;4.68;;;23.40;99.90;;;;;;4954908;28;20652;-70
2021/07/10 09:44:48;;;;;;;5.82;4.70;;;23.50;99.90;;;;;;4955938;28;20195;-71
2021/07/10 09:47:16;;;;;;;5.93;4.25;;;23.50;99.90;;;;;;4957628;28;20248;-71
2021/07/10 09:49:46;;;;;;;5.00;4.10;;;23.00;99.90;;;;;;4955151;28;20264;-70
2021/07/10 09:52:18;;;;;;;4.60;3.97;;;23.30;99.90;;;;;;4955480;28;20610;-70
2021/07/10 09:54:48;;;;;;;4.85;3.85;;;23.40;99.90;;;;;;4949752;28;20189;-71
2021/07/10 09:57:16;;;;;;;4.65;3.72;;;23.50;99.90;;;;;;4948525;28;20181;-71
2021/07/10 09:59:52;;;;;;;4.15;3.35;;;23.70;99.90;;;;;;4947451;28;20196;-70
2021/07/10 10:02:25;;;;;;;4.32;3.92;;;23.70;99.90;;;;;;4946529;28;20217;-72
2021/07/10 10:04:51;;;;;;;4.93;3.72;;;23.70;99.90;;;;;;4948567;28;20193;-70
2021/07/10 10:07:19;;;;;;;5.95;4.60;;;23.70;99.90;;;;;;4948879;28;20255;-70
2021/07/10 10:09:46;;;;;;;4.55;3.90;;;23.70;99.90;;;;;;4948228;28;20558;-72
2021/07/10 10:12:14;;;;;;;5.15;4.57;;;24.10;99.90;;;;;;4950726;28;20197;-71
2021/07/10 10:14:52;;;;;;;6.20;3.72;;;24.30;99.90;;;;;;4955970;28;20176;-70
2021/07/10 10:17:20;;;;;;;4.53;3.85;;;24.50;99.90;;;;;;4958470;28;20592;-71
2021/07/10 10:19:47;;;;;;;4.60;3.78;;;24.60;99.90;;;;;;4954115;28;20220;-70
2021/07/10 10:22:15;;;;;;;4.30;3.90;;;24.50;99.90;;;;;;4953551;28;20478;-72
2021/07/10 10:24:44;;;;;;;3.20;2.83;;;24.40;99.90;;;;;;4951229;28;20558;-70
2021/07/10 10:27:10;;;;;;;4.28;3.50;;;24.40;99.90;;;;;;4954421;28;20196;-71
2021/07/10 10:29:37;;;;;;;4.00;3.40;;;24.70;99.90;;;;;;4950444;28;20197;-70
2021/07/10 10:32:06;;;;;;;3.50;3.20;;;24.80;99.90;;;;;;4954856;28;20438;-71
2021/07/10 10:34:36;;;;;;;2.85;2.55;;;25.00;99.90;;;;;;4953952;28;20280;-72
2021/07/10 10:37:03;;;;;;;4.85;3.70;;;24.70;99.90;;;;;;4955259;28;20216;-70
2021/07/10 10:39:34;;;;;;;4.65;3.38;;;24.70;99.90;;;;;;4954623;28;20213;-70
2021/07/10 10:42:07;;;;;;;3.97;3.60;;;24.70;99.90;;;;;;4954101;28;20559;-70
2021/07/10 10:44:39;;;;;;;3.83;3.50;;;24.80;99.90;;;;;;4951070;28;20903;-70
2021/07/10 10:47:06;;;;;;;3.13;2.80;;;25.20;99.90;;;;;;4958686;28;20196;-71
2021/07/10 10:50:02;;;;;;;3.80;3.30;;;25.20;99.90;;;;;;4950679;28;20614;-70
2021/07/10 10:52:41;;;;;;;3.78;2.90;;;24.80;99.90;;;;;;4946551;28;20568;-70
2021/07/10 10:55:16;;;;;;;3.50;3.20;;;24.90;99.90;;;;;;4955823;28;20236;-70
2021/07/10 10:57:56;;;;;;;3.22;2.85;;;24.80;99.90;;;;;;4953522;28;20195;-70
2021/07/10 11:00:35;;;;;;;4.43;2.90;;;24.80;99.90;;;;;;4955726;28;20305;-70
2021/07/10 11:03:04;;;;;;;3.80;3.40;;;24.80;99.90;;;;;;4954985;28;20386;-70
2021/07/10 11:05:33;;;;;;;4.75;3.00;;;24.70;99.90;;;;;;4956215;28;20188;-70
2021/07/10 11:08:17;;;;;;;3.22;2.92;;;24.90;99.90;;;;;;4949356;28;20574;-72
2021/07/10 11:10:53;;;;;;;3.33;3.03;;;24.70;99.90;;;;;;4957445;28;20197;-70
2021/07/10 11:13:38;;;;;;;3.25;2.95;;;24.90;99.90;;;;;;4950927;28;20189;-72
2021/07/10 11:16:16;;;;;;;3.25;2.95;;;25.00;99.90;;;;;;4948865;28;20224;-71
2021/07/10 11:18:59;;;;;;;3.55;3.25;;;24.80;99.90;;;;;;4949326;28;20188;-72
2021/07/10 11:21:34;;;;;;;3.58;3.00;;;24.70;99.90;;;;;;4954146;28;20188;-72
2021/07/10 11:26:55;;;;;;;3.20;2.90;;;25.10;99.90;;;;;;4954762;28;20241;-70
2021/07/10 11:29:28;;;;;;;3.63;3.33;;;25.20;99.90;;;;;;4946244;28;20202;-70
2021/07/10 11:32:14;;;;;;;4.13;3.33;;;25.40;99.90;;;;;;4953643;28;20658;-72
2021/07/10 11:34:59;;;;;;;5.45;3.88;;;25.70;99.90;;;;;;4960493;28;20209;-70
2021/07/10 11:37:26;;;;;;;4.10;3.70;;;25.70;99.90;;;;;;4956566;28;20178;-70
2021/07/10 11:40:05;;;;;;;4.07;3.65;;;25.60;99.90;;;;;;4962378;28;20212;-70
2021/07/10 11:42:34;;;;;;;4.55;3.42;;;25.60;99.90;;;;;;4956865;28;20181;-70
2021/07/10 11:45:13;;;;;;;4.10;3.70;;;25.50;99.90;;;;;;4952396;28;20944;-72
2021/07/10 11:47:47;;;;;;;4.97;4.15;;;25.30;99.90;;;;;;4956069;28;20204;-70
2021/07/10 11:50:22;;;;;;;4.18;3.78;;;25.50;99.90;;;;;;4957716;28;20671;-73
2021/07/10 11:53:03;;;;;;;4.28;3.33;;;25.40;99.90;;;;;;4958581;28;20193;-72
2021/07/10 11:55:38;;;;;;;3.47;3.13;;;25.30;99.90;;;;;;4954171;28;20596;-71
2021/07/10 11:58:11;;;;;;;3.83;3.22;;;25.00;99.90;;;;;;4954534;28;20220;-71
2021/07/10 12:00:37;;;;;;;4.18;3.42;;;25.00;99.90;;;;;;4956804;28;20961;-74
2021/07/10 12:03:03;;;;;;;3.60;3.20;;;25.10;99.90;;;;;;4960055;28;20186;-71
2021/07/10 12:05:33;;;;;;;3.92;3.47;;;25.10;99.90;;;;;;4955669;28;20252;-70
2021/07/10 12:08:02;;;;;;;3.97;3.55;;;25.10;99.90;;;;;;4956280;28;20259;-71
2021/07/10 12:10:34;;;;;;;4.20;3.80;;;25.10;99.90;;;;;;4956924;28;20214;-71
2021/07/10 12:13:09;;;;;;;7.25;3.53;;;25.10;99.90;;;;;;4953747;28;20695;-73
2021/07/10 12:15:41;;;;;;;3.53;3.22;;;25.20;99.90;;;;;;4955370;28;20205;-71
2021/07/10 12:18:10;;;;;;;3.45;3.15;;;25.50;99.90;;;;;;4960494;28;20220;-71
2021/07/10 12:20:40;;;;;;;3.80;3.40;;;25.70;99.90;;;;;;4963200;28;20211;-72
2021/07/10 12:23:14;;;;;;;3.08;2.78;;;25.80;99.90;;;;;;4956903;28;20543;-72
2021/07/10 12:25:52;;;;;;;4.28;2.88;;;25.80;99.90;;;;;;4954920;28;20264;-70
2021/07/10 12:28:38;;;;;;;3.92;3.42;;;26.00;99.90;;;;;;4957058;28;20192;-71
2021/07/10 12:31:25;;;;;;;3.25;2.95;;;26.30;99.90;;;;;;4958124;28;20207;-72
2021/07/10 12:33:54;;;;;;;3.28;2.97;;;26.50;99.90;;;;;;4947882;28;20709;-70
2021/07/10 12:36:33;;;;;;;3.20;2.63;;;26.60;99.90;;;;;;4951848;28;20260;-71
2021/07/10 12:39:18;;;;;;;3.67;3.25;;;26.60;99.90;;;;;;4956638;28;20216;-72
2021/07/10 12:41:47;;;;;;;4.13;3.35;;;26.60;99.90;;;;;;4956164;28;20278;-74
2021/07/10 12:44:15;;;;;;;3.15;2.85;;;26.70;99.90;;;;;;4953935;28;20296;-74
2021/07/10 12:46:46;;;;;;;4.53;3.55;;;26.60;99.90;;;;;;4955476;28;20310;-73
2021/07/10 12:49:12;;;;;;;2.97;2.63;;;26.50;99.90;;;;;;4957010;28;20287;-71
2021/07/10 12:51:38;;;;;;;2.92;2.72;;;26.50;99.90;;;;;;4958290;28;20189;-72
2021/07/10 12:54:09;;;;;;;3.22;2.92;;;26.70;99.90;;;;;;4954233;28;20221;-73